Time;durP1;ratioP1;P1;durP2;ratioP2;P2;SDS_P1;SDS_P2;PMS_P1;PMS_P2;Temp;Humidity;BMP_temperature;BMP_pressure;BME280_temperature;BME280_humidity;BME280_pressure;Samples;Min_cycle;Max_cycle;Signal;HPM_P1;HPM_P2
2022/04/06 00:01:18;;;;;;;2.92;1.65;;;;;;;17.65;46.64;100354.41;4957091;28;20121;-65
2022/04/06 00:03:44;;;;;;;7.05;1.98;;;;;;;17.62;45.75;100352.91;4955918;29;20039;-67
2022/04/06 00:06:09;;;;;;;5.95;2.40;;;;;;;17.61;46.41;100353.13;4957104;28;20106;-66
2022/04/06 00:08:35;;;;;;;7.63;2.50;;;;;;;17.59;45.67;100345.16;4956698;28;20065;-66
2022/04/06 00:11:00;;;;;;;7.45;1.83;;;;;;;17.58;45.43;100346.19;4956001;29;20035;-67
2022/04/06 00:13:26;;;;;;;6.60;1.73;;;;;;;17.55;45.03;100341.16;4957317;28;20054;-67
2022/04/06 00:15:51;;;;;;;8.88;1.67;;;;;;;17.56;45.98;100342.00;4955174;28;20025;-66
2022/04/06 00:18:16;;;;;;;8.57;1.98;;;;;;;17.54;44.96;100339.47;4956698;28;20114;-66
2022/04/06 00:20:42;;;;;;;6.30;2.15;;;;;;;17.53;46.17;100337.78;4939750;29;20027;-67
2022/04/06 00:23:08;;;;;;;10.32;2.35;;;;;;;17.52;46.11;100341.50;4956655;28;20110;-66
2022/04/06 00:25:34;;;;;;;4.88;1.55;;;;;;;17.52;45.48;100330.66;4955261;29;20556;-66
2022/04/06 00:27:59;;;;;;;8.23;2.25;;;;;;;17.50;45.57;100331.88;4956552;28;20027;-67
2022/04/06 00:30:24;;;;;;;6.95;1.30;;;;;;;17.51;45.95;100328.97;4956294;28;20061;-67
2022/04/06 00:32:50;;;;;;;5.80;1.73;;;;;;;17.52;45.49;100327.09;4955042;28;20027;-67
2022/04/06 00:35:34;;;;;;;9.48;2.00;;;;;;;17.49;45.64;100336.44;4956369;28;20086;-67
2022/04/06 00:38:02;;;;;;;8.57;2.22;;;;;;;17.44;45.25;100325.34;4956272;28;20023;-67
2022/04/06 00:40:28;;;;;;;5.38;1.60;;;;;;;17.43;46.11;100323.66;4956444;28;20063;-66
2022/04/06 00:42:53;;;;;;;7.15;1.83;;;;;;;17.42;45.60;100313.81;4956154;28;20529;-66
2022/04/06 00:45:23;;;;;;;7.22;2.15;;;;;;;17.42;45.89;100324.66;4956022;28;20027;-67
2022/04/06 00:47:48;;;;;;;7.45;1.98;;;;;;;17.40;45.89;100316.72;4956575;28;20023;-66
2022/04/06 00:50:14;;;;;;;7.47;1.83;;;;;;;17.41;45.38;100317.59;4954890;29;20038;-67
2022/04/06 00:52:39;;;;;;;4.47;2.58;;;;;;;17.41;45.06;100318.44;4954800;28;20031;-66
2022/04/06 00:55:05;;;;;;;3.88;1.15;;;;;;;17.41;44.96;100313.00;4956003;28;20031;-67
2022/04/06 00:57:32;;;;;;;5.93;1.50;;;;;;;17.46;45.15;100312.44;4954671;29;20035;-66
2022/04/06 00:59:57;;;;;;;2.53;1.83;;;;;;;17.45;45.96;100300.75;4955936;28;20175;-66
2022/04/06 01:02:23;;;;;;;6.10;1.70;;;;;;;17.43;46.39;100297.41;4955988;28;20136;-67
2022/04/06 01:04:48;;;;;;;8.40;1.67;;;;;;;17.41;45.56;100301.34;4955715;28;20031;-67
2022/04/06 01:07:14;;;;;;;6.28;1.88;;;;;;;17.40;45.53;100305.06;4955646;28;20046;-66
2022/04/06 01:09:40;;;;;;;10.10;1.73;;;;;;;17.38;45.80;100301.69;4954871;29;20038;-67
2022/04/06 01:12:05;;;;;;;5.22;1.83;;;;;;;17.37;45.56;100306.28;4954511;29;20492;-67
2022/04/06 01:14:31;;;;;;;7.95;2.25;;;;;;;17.38;45.00;100299.84;4954281;29;20031;-67
2022/04/06 01:17:02;;;;;;;6.68;1.67;;;;;;;17.37;46.07;100300.00;4954621;29;20038;-66
2022/04/06 01:19:32;;;;;;;2.67;1.35;;;;;;;17.37;44.86;100316.25;4955996;28;20023;-66
2022/04/06 01:21:57;;;;;;;4.65;1.40;;;;;;;17.36;45.62;100301.06;4956019;28;20029;-66
2022/04/06 01:24:23;;;;;;;11.13;1.83;;;;;;;17.34;45.36;100295.81;4955642;28;20065;-67
2022/04/06 01:26:48;;;;;;;5.55;1.55;;;;;;;17.29;45.90;100292.81;4973956;28;20445;-66
2022/04/06 01:29:13;;;;;;;4.65;1.60;;;;;;;17.32;46.26;100297.03;4973640;28;20031;-67
2022/04/06 01:31:39;;;;;;;7.00;1.42;;;;;;;17.33;45.00;100301.44;4974817;28;20031;-67
2022/04/06 01:34:04;;;;;;;6.72;1.52;;;;;;;17.32;45.57;100291.59;4974863;28;20023;-66
2022/04/06 01:36:29;;;;;;;4.97;1.55;;;;;;;17.32;45.44;100297.03;4974821;28;20053;-67
2022/04/06 01:38:55;;;;;;;6.30;1.98;;;;;;;17.32;45.76;100291.59;4974908;28;20023;-67
2022/04/06 01:41:20;;;;;;;9.98;1.85;;;;;;;17.30;45.45;100301.78;4975112;28;20037;-67
2022/04/06 01:43:45;;;;;;;4.88;1.15;;;;;;;17.27;46.11;100294.03;4974382;28;20520;-66
2022/04/06 01:46:11;;;;;;;10.43;1.73;;;;;;;17.27;45.14;100303.00;4974677;28;20575;-66
2022/04/06 01:52:11;;;;;;;9.25;1.60;;;;;;;17.25;44.75;100296.91;4974949;28;20031;-66
2022/04/06 01:54:07;;;;;;;2.28;1.40;;;;;;;17.24;44.76;100289.00;4934855;28;20035;-67
2022/04/06 01:56:32;;;;;;;5.25;1.80;;;;;;;17.21;45.76;100292.06;4974615;28;20113;-67
2022/04/06 01:58:58;;;;;;;6.22;1.50;;;;;;;17.23;46.38;100290.00;4974260;28;20163;-67
2022/04/06 02:01:23;;;;;;;2.70;1.65;;;;;;;17.22;46.21;100275.66;4974577;28;20499;-67
2022/04/06 02:03:48;;;;;;;4.95;1.67;;;;;;;17.20;45.21;100283.09;4974640;28;20042;-67
2022/04/06 02:06:14;;;;;;;9.52;2.55;;;;;;;17.19;45.67;100286.00;4974553;28;20031;-67
2022/04/06 02:08:39;;;;;;;6.82;3.17;;;;;;;17.18;46.15;100281.59;4964617;28;20032;-67
2022/04/06 02:11:04;;;;;;;4.18;1.63;;;;;;;17.16;45.12;100286.38;4955103;28;20031;-67
2022/04/06 02:13:30;;;;;;;6.72;1.63;;;;;;;17.16;46.07;100280.97;4955091;28;20469;-66
2022/04/06 02:15:55;;;;;;;7.07;2.08;;;;;;;17.15;45.62;100279.28;4955175;28;20447;-67
2022/04/06 02:18:20;;;;;;;3.30;1.27;;;;;;;17.16;46.35;100275.53;4955281;28;20503;-66
2022/04/06 02:20:46;;;;;;;7.00;1.55;;;;;;;17.15;45.76;100276.56;4937943;29;20716;-67
2022/04/06 02:23:11;;;;;;;6.18;2.10;;;;;;;17.16;45.97;100270.13;4954942;28;20027;-67
2022/04/06 02:25:36;;;;;;;13.68;2.15;;;;;;;17.16;45.24;100270.13;4955003;28;20465;-66
2022/04/06 02:28:02;;;;;;;10.13;2.10;;;;;;;17.16;46.10;100270.13;4954950;28;20058;-67
2022/04/06 02:30:27;;;;;;;5.45;2.00;;;;;;;17.16;46.35;100264.72;4986224;28;20098;-66
2022/04/06 02:32:53;;;;;;;9.27;1.77;;;;;;;17.18;45.09;100254.53;4953957;28;20027;-66
2022/04/06 02:35:18;;;;;;;3.95;1.77;;;;;;;17.15;46.25;100252.22;4954733;28;20098;-67
2022/04/06 02:37:44;;;;;;;6.45;2.08;;;;;;;17.13;45.23;100255.13;4955172;28;20106;-67
2022/04/06 02:40:11;;;;;;;7.32;1.75;;;;;;;17.11;46.03;100267.16;4958294;28;20102;-67
2022/04/06 02:42:36;;;;;;;4.57;2.35;;;;;;;17.10;45.26;100251.94;4957168;29;20400;-66
2022/04/06 02:45:02;;;;;;;7.63;1.75;;;;;;;17.08;45.97;100251.28;4958145;28;20023;-67
2022/04/06 02:47:27;;;;;;;8.30;1.80;;;;;;;17.07;45.70;100255.00;4958340;28;20027;-66
2022/04/06 02:49:53;;;;;;;4.13;2.13;;;;;;;17.05;45.73;100257.91;4956982;29;20591;-67
2022/04/06 02:52:18;;;;;;;6.32;2.35;;;;;;;17.05;45.80;100247.09;4958282;28;20034;-66
2022/04/06 02:54:43;;;;;;;4.45;1.90;;;;;;;17.07;45.53;100246.88;4957291;29;20489;-67
2022/04/06 02:57:09;;;;;;;5.13;1.92;;;;;;;17.08;45.73;100235.03;4958261;28;20031;-67
2022/04/06 02:59:34;;;;;;;10.25;1.90;;;;;;;17.07;45.92;100228.78;4957864;28;20047;-67
2022/04/06 03:02:01;;;;;;;4.20;1.83;;;;;;;17.08;45.81;100226.91;4957868;28;20099;-67
2022/04/06 03:04:26;;;;;;;4.00;1.52;;;;;;;17.10;45.79;100227.56;4957877;28;20031;-67
2022/04/06 03:06:52;;;;;;;5.25;1.67;;;;;;;17.08;44.60;100232.34;4958206;28;20027;-66
2022/04/06 03:09:17;;;;;;;5.20;1.48;;;;;;;17.06;45.48;100235.22;4957825;28;20031;-67
2022/04/06 03:11:43;;;;;;;5.80;1.67;;;;;;;17.06;45.15;100235.22;4957782;28;20426;-66
2022/04/06 03:14:09;;;;;;;11.80;2.15;;;;;;;17.04;45.85;100225.59;4957643;28;20015;-66
2022/04/06 03:16:34;;;;;;;6.57;1.60;;;;;;;17.05;45.29;100227.28;4958099;28;20086;-66
2022/04/06 03:18:59;;;;;;;8.20;1.70;;;;;;;17.05;44.99;100230.00;4957678;28;20062;-66
2022/04/06 03:21:25;;;;;;;7.50;1.75;;;;;;;17.06;45.00;100215.41;4957899;28;20485;-67
2022/04/06 03:23:50;;;;;;;4.32;1.45;;;;;;;17.06;45.30;100218.97;4956319;29;20031;-67
2022/04/06 03:26:16;;;;;;;10.18;2.00;;;;;;;17.06;45.45;100221.69;4956217;28;20366;-65
2022/04/06 03:28:41;;;;;;;9.55;1.88;;;;;;;17.06;45.62;100215.41;4957548;28;20031;-67
2022/04/06 03:31:07;;;;;;;4.38;1.55;;;;;;;17.07;45.34;100217.97;4957537;28;20034;-66
2022/04/06 03:33:33;;;;;;;7.32;1.60;;;;;;;17.06;45.02;100207.31;4940307;29;20082;-67
2022/04/06 03:35:58;;;;;;;2.72;1.55;;;;;;;17.05;44.61;100200.22;4957317;28;20019;-67
2022/04/06 03:38:23;;;;;;;4.05;1.73;;;;;;;17.05;44.47;100208.34;4957248;28;20118;-66
2022/04/06 03:40:49;;;;;;;8.38;1.42;;;;;;;17.06;45.05;100199.19;4957338;28;20130;-67
2022/04/06 03:43:14;;;;;;;8.23;1.65;;;;;;;17.06;46.09;100194.63;4940087;29;20029;-69
2022/04/06 03:45:40;;;;;;;4.80;1.90;;;;;;;17.06;45.74;100194.63;4956915;28;20367;-67
2022/04/06 03:48:05;;;;;;;6.50;1.55;;;;;;;17.01;45.40;100201.63;4955983;29;20158;-67
2022/04/06 03:50:31;;;;;;;13.80;3.05;;;;;;;17.01;45.50;100197.06;4955143;28;20031;-68
2022/04/06 03:52:56;;;;;;;9.52;1.88;;;;;;;17.02;44.93;100203.31;4957095;28;20382;-65
2022/04/06 03:55:22;;;;;;;8.35;1.90;;;;;;;17.01;44.73;100196.19;4957286;28;20027;-66
2022/04/06 03:57:47;;;;;;;5.82;1.83;;;;;;;17.01;45.92;100190.78;4957122;28;20544;-67
2022/04/06 04:00:14;;;;;;;3.90;1.33;;;;;;;17.03;45.87;100199.59;4956744;28;20047;-67
2022/04/06 04:02:40;;;;;;;6.97;1.77;;;;;;;17.01;44.24;100191.63;4956757;28;20585;-67
2022/04/06 04:05:06;;;;;;;4.95;1.80;;;;;;;16.99;44.77;100192.84;4957073;28;20035;-67
2022/04/06 04:07:37;;;;;;;3.60;1.60;;;;;;;16.99;44.32;100195.56;4956908;28;20019;-67
2022/04/06 04:10:06;;;;;;;10.32;2.40;;;;;;;16.98;45.36;100193.88;4955886;29;20126;-66
2022/04/06 04:12:33;;;;;;;7.72;2.10;;;;;;;16.97;44.86;100195.75;4955447;29;20101;-66
2022/04/06 04:14:58;;;;;;;9.23;2.00;;;;;;;16.98;46.12;100192.00;4955484;29;20022;-67
2022/04/06 04:17:23;;;;;;;6.55;2.05;;;;;;;16.98;45.33;100188.44;4956813;28;20110;-67
2022/04/06 04:19:48;;;;;;;12.85;3.33;;;;;;;16.95;45.52;100197.78;4956544;28;20055;-66
2022/04/06 04:22:14;;;;;;;7.05;1.55;;;;;;;16.95;45.09;100192.38;4956479;28;20031;-66
2022/04/06 04:24:39;;;;;;;7.35;1.65;;;;;;;16.94;45.33;100195.28;4956066;28;20027;-67
2022/04/06 04:27:05;;;;;;;6.35;1.25;;;;;;;16.93;44.98;100188.19;4955150;29;20529;-67
2022/04/06 04:29:30;;;;;;;7.05;2.47;;;;;;;16.96;44.43;100194.06;4956566;28;20378;-67
2022/04/06 04:31:55;;;;;;;8.30;1.80;;;;;;;16.98;45.39;100192.00;4955074;28;20532;-67
2022/04/06 04:34:21;;;;;;;7.18;1.75;;;;;;;16.99;44.32;100182.03;4956324;28;20023;-67
2022/04/06 04:36:46;;;;;;;11.38;2.08;;;;;;;16.98;44.97;100191.16;4956290;28;20118;-67
2022/04/06 04:39:11;;;;;;;3.20;1.65;;;;;;;16.94;44.93;100189.88;4954888;29;20078;-67
2022/04/06 04:41:37;;;;;;;5.85;1.75;;;;;;;16.94;45.00;100184.47;4956072;28;20059;-67
2022/04/06 04:44:02;;;;;;;7.30;1.85;;;;;;;16.94;45.61;100179.03;4956050;28;20031;-67
2022/04/06 04:46:28;;;;;;;13.43;2.50;;;;;;;16.97;45.20;100189.50;4956087;28;20038;-67
2022/04/06 04:48:53;;;;;;;7.50;1.77;;;;;;;16.97;45.57;100173.25;4956551;28;20031;-67
2022/04/06 04:51:18;;;;;;;7.80;3.60;;;;;;;16.95;45.22;100180.72;4956044;28;20035;-66
2022/04/06 04:53:44;;;;;;;3.58;1.50;;;;;;;16.93;44.83;100180.06;4955203;28;20035;-66
2022/04/06 04:56:09;;;;;;;12.27;2.63;;;;;;;16.95;45.92;100176.13;4955887;28;20055;-67
2022/04/06 04:58:35;;;;;;;15.90;1.60;;;;;;;16.95;45.82;100175.28;4955621;28;20053;-67
2022/04/06 05:01:00;;;;;;;4.18;1.50;;;;;;;16.94;45.72;100168.22;4955634;28;20023;-67
2022/04/06 05:03:26;;;;;;;6.20;1.77;;;;;;;16.93;45.36;100170.09;4955777;28;20035;-68
2022/04/06 05:05:53;;;;;;;6.80;2.10;;;;;;;16.94;45.60;100163.66;4954666;29;20020;-67
2022/04/06 05:08:20;;;;;;;5.00;1.50;;;;;;;16.94;45.92;100162.81;4955911;28;20377;-67
2022/04/06 05:10:45;;;;;;;14.02;1.98;;;;;;;16.93;44.70;100159.25;4955812;28;20030;-67
2022/04/06 05:13:11;;;;;;;5.75;1.38;;;;;;;16.93;46.02;100156.56;4954527;28;20439;-67
2022/04/06 05:15:36;;;;;;;7.40;1.40;;;;;;;16.91;45.04;100169.44;4955686;28;20412;-67
2022/04/06 05:18:02;;;;;;;5.78;2.78;;;;;;;16.94;45.56;100166.38;4955537;28;20031;-67
2022/04/06 05:20:27;;;;;;;8.65;1.58;;;;;;;16.96;45.95;100166.16;4955681;28;20106;-66
2022/04/06 05:22:53;;;;;;;4.88;1.38;;;;;;;16.96;44.78;100158.91;4955838;28;20351;-67
2022/04/06 05:25:18;;;;;;;8.63;1.75;;;;;;;16.96;45.39;100160.75;4954302;28;20029;-66
2022/04/06 05:27:48;;;;;;;4.10;1.70;;;;;;;16.98;45.31;100154.13;4955607;28;20019;-66
2022/04/06 05:30:15;;;;;;;6.57;1.45;;;;;;;16.97;44.27;100163.28;4954193;29;20027;-67
2022/04/06 05:32:41;;;;;;;5.20;1.63;;;;;;;16.96;44.58;100152.63;4955490;28;20021;-67
2022/04/06 05:35:08;;;;;;;3.90;1.58;;;;;;;16.96;45.35;100160.75;4954152;28;20026;-67
2022/04/06 05:37:33;;;;;;;3.00;1.30;;;;;;;16.96;44.59;100158.03;4955323;28;20031;-67
2022/04/06 05:40:00;;;;;;;7.30;1.27;;;;;;;16.95;45.06;100156.34;4955543;28;20082;-65
2022/04/06 05:42:26;;;;;;;6.45;1.67;;;;;;;16.92;45.34;100164.88;4938270;29;20058;-67
2022/04/06 05:44:51;;;;;;;7.25;1.77;;;;;;;16.91;45.27;100164.03;4955356;28;20027;-67
2022/04/06 05:47:20;;;;;;;8.70;1.15;;;;;;;16.86;46.04;100159.16;4955954;28;20055;-65
2022/04/06 05:49:45;;;;;;;5.50;2.05;;;;;;;16.84;45.32;100163.91;4954216;28;20032;-67
2022/04/06 05:52:11;;;;;;;6.25;1.25;;;;;;;16.83;44.95;100162.22;4955234;28;20074;-66
2022/04/06 05:54:36;;;;;;;3.92;1.52;;;;;;;16.85;45.14;100171.03;4955121;28;20057;-67
2022/04/06 05:57:02;;;;;;;8.40;2.55;;;;;;;16.83;44.49;100156.81;4955164;28;20027;-67
2022/04/06 05:59:28;;;;;;;8.95;2.22;;;;;;;16.83;44.41;100167.63;4954872;28;20048;-67
2022/04/06 06:01:53;;;;;;;5.82;0.98;;;;;;;16.82;45.62;100181.38;4955198;28;20035;-67
2022/04/06 06:04:18;;;;;;;4.63;1.30;;;;;;;16.79;44.47;100169.06;4955329;28;20031;-67
2022/04/06 06:06:44;;;;;;;4.47;1.73;;;;;;;16.81;44.35;100169.69;4955284;28;20058;-67
2022/04/06 06:09:10;;;;;;;2.88;1.30;;;;;;;16.84;44.73;100174.75;4953732;29;20034;-67
2022/04/06 06:11:36;;;;;;;4.05;2.03;;;;;;;16.82;45.91;100182.22;4955142;28;20035;-67
2022/04/06 06:14:01;;;;;;;7.55;1.38;;;;;;;16.81;44.45;100174.25;4957212;28;20035;-67
2022/04/06 06:16:28;;;;;;;3.85;1.20;;;;;;;16.80;44.92;100178.88;4958771;28;20039;-68
2022/04/06 06:18:55;;;;;;;6.70;1.25;;;;;;;16.78;45.41;100180.88;4958751;28;20038;-67
2022/04/06 06:21:21;;;;;;;2.60;1.45;;;;;;;16.78;45.71;100172.78;4958810;28;20051;-67
2022/04/06 06:23:46;;;;;;;2.15;1.50;;;;;;;16.79;45.53;100174.47;4958874;28;20031;-67
2022/04/06 06:26:12;;;;;;;8.05;1.67;;;;;;;16.81;44.63;100169.69;4958453;28;20499;-67
2022/04/06 06:28:37;;;;;;;3.83;1.65;;;;;;;16.82;46.27;100165.97;4958441;28;20033;-67
2022/04/06 06:31:02;;;;;;;8.38;1.63;;;;;;;16.83;45.01;100167.63;4961452;28;20019;-67
2022/04/06 06:33:28;;;;;;;2.88;1.40;;;;;;;16.85;45.10;100176.44;4977886;28;20027;-67
2022/04/06 06:35:53;;;;;;;4.95;1.35;;;;;;;16.85;44.80;100171.03;4977604;28;20473;-67
2022/04/06 06:38:18;;;;;;;5.53;1.60;;;;;;;16.81;45.03;100169.69;4978022;28;20400;-67
2022/04/06 06:40:44;;;;;;;7.18;1.58;;;;;;;16.79;45.18;100160.94;4978347;28;20033;-67
2022/04/06 06:43:09;;;;;;;6.90;1.65;;;;;;;16.79;46.28;100170.91;4977645;28;20030;-67
2022/04/06 06:45:34;;;;;;;3.17;1.55;;;;;;;16.74;45.01;100162.53;4977435;28;20054;-67
2022/04/06 06:48:00;;;;;;;4.72;1.05;;;;;;;16.74;45.81;100171.47;4977482;28;20031;-67
2022/04/06 06:50:25;;;;;;;4.97;1.58;;;;;;;16.77;45.44;100168.41;4977658;28;20531;-67
2022/04/06 06:52:50;;;;;;;2.97;1.48;;;;;;;16.79;45.69;100171.75;4976113;28;20102;-67
2022/04/06 06:55:18;;;;;;;10.10;1.48;;;;;;;16.82;45.42;100165.13;4976111;28;20046;-67
2022/04/06 06:57:44;;;;;;;4.03;1.35;;;;;;;16.82;45.26;100157.88;4977620;28;20037;-67
2022/04/06 07:00:11;;;;;;;8.50;1.83;;;;;;;16.81;44.88;100150.75;4977276;28;20050;-67
2022/04/06 07:02:37;;;;;;;5.97;1.42;;;;;;;16.82;45.06;100152.47;4977295;28;20484;-67
2022/04/06 07:05:03;;;;;;;2.65;1.20;;;;;;;16.82;45.35;100147.03;4977406;28;20476;-67
2022/04/06 07:07:28;;;;;;;3.55;1.35;;;;;;;16.87;44.97;100150.03;4977107;28;20023;-67
2022/04/06 07:09:54;;;;;;;5.20;1.40;;;;;;;16.89;45.81;100149.81;4971812;28;20034;-67
2022/04/06 07:12:19;;;;;;;2.30;1.35;;;;;;;16.92;45.63;100137.81;4961623;28;20825;-67
2022/04/06 07:14:44;;;;;;;1.98;1.13;;;;;;;16.96;45.30;100139.09;4974123;28;20436;-66
2022/04/06 07:17:10;;;;;;;8.60;1.58;;;;;;;17.02;44.60;100143.78;4977112;28;20468;-67
2022/04/06 07:19:35;;;;;;;6.85;1.88;;;;;;;17.08;44.60;100143.03;4977155;28;20053;-67
2022/04/06 07:22:00;;;;;;;2.83;1.30;;;;;;;17.15;44.76;100143.94;4975731;28;20026;-67
2022/04/06 07:24:26;;;;;;;3.97;1.02;;;;;;;17.21;45.33;100135.06;4975363;28;20039;-67
2022/04/06 07:26:51;;;;;;;5.40;0.93;;;;;;;17.25;44.61;100139.09;4977146;28;20376;-67
2022/04/06 07:29:16;;;;;;;4.78;1.60;;;;;;;17.30;45.13;100128.53;4970643;28;20118;-67
2022/04/06 07:31:42;;;;;;;3.72;1.42;;;;;;;17.32;44.79;100127.31;4957393;28;20035;-67
2022/04/06 07:34:08;;;;;;;4.20;1.05;;;;;;;17.35;44.10;100131.50;4957676;28;20023;-67
2022/04/06 07:36:34;;;;;;;4.05;1.30;;;;;;;17.38;44.96;100120.28;4957315;28;20023;-66
2022/04/06 07:39:05;;;;;;;3.90;1.00;;;;;;;17.39;43.73;100119.28;4957443;28;20028;-67
2022/04/06 07:41:32;;;;;;;1.45;0.88;;;;;;;17.36;44.66;100125.88;4957333;28;20031;-67
2022/04/06 07:43:58;;;;;;;1.40;1.30;;;;;;;17.36;44.51;100120.47;4957146;28;20374;-67
2022/04/06 07:46:23;;;;;;;2.33;0.90;;;;;;;17.38;43.95;100128.41;4957239;28;20037;-67
2022/04/06 07:48:49;;;;;;;4.35;0.90;;;;;;;17.38;43.69;100118.44;4957550;28;20035;-67
2022/04/06 07:51:14;;;;;;;3.65;1.00;;;;;;;17.41;43.93;100117.22;4967668;28;20035;-67
2022/04/06 07:53:40;;;;;;;3.03;0.80;;;;;;;17.42;44.56;100121.56;4976694;28;20034;-67
2022/04/06 07:56:06;;;;;;;5.03;0.65;;;;;;;17.47;43.93;100105.63;4976442;28;20026;-68
2022/04/06 07:58:32;;;;;;;4.45;1.55;;;;;;;17.58;44.08;100112.44;4976362;28;20185;-67
2022/04/06 08:00:58;;;;;;;2.90;0.95;;;;;;;17.66;43.39;100094.19;4976247;28;20093;-67
2022/04/06 08:03:23;;;;;;;4.15;0.65;;;;;;;17.73;43.62;100107.78;4976143;28;20023;-67
2022/04/06 08:05:50;;;;;;;4.47;0.85;;;;;;;17.78;43.54;100108.88;4976202;28;20113;-66
2022/04/06 08:08:15;;;;;;;4.80;0.88;;;;;;;17.85;43.22;100093.53;4976687;28;20081;-66
2022/04/06 08:10:41;;;;;;;3.35;0.70;;;;;;;17.89;43.57;100088.59;4975038;28;20030;-67
2022/04/06 08:13:06;;;;;;;5.43;1.15;;;;;;;17.97;43.52;100094.72;4975190;28;20041;-66
2022/04/06 08:15:31;;;;;;;3.53;0.80;;;;;;;18.04;42.36;100095.59;4975838;28;20425;-67
2022/04/06 08:17:57;;;;;;;3.35;0.88;;;;;;;18.09;42.61;100094.19;4976043;28;20107;-67
2022/04/06 08:20:23;;;;;;;3.75;0.75;;;;;;;18.20;42.46;100097.16;4975822;28;20050;-66
2022/04/06 08:22:50;;;;;;;4.50;1.38;;;;;;;18.26;42.67;100090.97;4958429;28;20023;-67
2022/04/06 08:25:16;;;;;;;2.17;0.80;;;;;;;18.29;42.53;100087.88;4963257;28;20532;-68
2022/04/06 08:27:42;;;;;;;7.03;0.70;;;;;;;18.38;42.83;100093.97;4956388;28;20450;-67
2022/04/06 08:30:09;;;;;;;3.17;0.57;;;;;;;18.39;42.11;100093.81;4956386;28;20103;-67
2022/04/06 08:32:35;;;;;;;3.22;1.15;;;;;;;18.42;43.30;100092.56;4956497;28;20055;-67
2022/04/06 08:35:00;;;;;;;3.58;0.68;;;;;;;18.42;42.53;100095.28;4956350;28;20440;-67
2022/04/06 08:37:29;;;;;;;4.13;0.98;;;;;;;18.46;41.93;100097.38;4955560;28;20110;-67
2022/04/06 08:39:55;;;;;;;1.23;0.73;;;;;;;18.48;42.15;100089.09;4954910;29;20027;-67
2022/04/06 08:42:20;;;;;;;2.33;0.63;;;;;;;18.59;42.21;100093.97;4956089;28;20051;-67
2022/04/06 08:44:46;;;;;;;2.85;0.57;;;;;;;18.67;42.66;100084.81;4956102;28;20031;-67
2022/04/06 08:47:11;;;;;;;5.07;0.73;;;;;;;18.67;41.44;100099.22;4956080;28;20034;-67
2022/04/06 08:49:40;;;;;;;4.85;0.85;;;;;;;18.69;41.78;100082.75;4956673;28;20058;-67
2022/04/06 08:52:06;;;;;;;3.20;0.65;;;;;;;18.75;41.91;100080.06;4956537;28;20050;-68
2022/04/06 08:54:31;;;;;;;9.23;0.95;;;;;;;18.77;41.47;100086.13;4955273;29;20023;-67
2022/04/06 08:56:57;;;;;;;8.35;0.75;;;;;;;18.70;41.42;100082.56;4954844;28;20030;-67
2022/04/06 08:59:22;;;;;;;4.22;0.90;;;;;;;18.66;41.51;100092.13;4955677;29;20051;-67
2022/04/06 09:01:48;;;;;;;5.07;1.05;;;;;;;18.62;41.96;100096.25;4956510;28;20534;-66
2022/04/06 09:04:13;;;;;;;3.53;1.10;;;;;;;18.59;42.21;100091.25;4956008;28;20086;-67
2022/04/06 09:06:44;;;;;;;10.10;1.48;;;;;;;18.57;42.38;100087.88;4956020;28;20110;-67
2022/04/06 09:09:10;;;;;;;5.20;0.70;;;;;;;18.52;41.45;100084.94;4969209;28;20034;-67
2022/04/06 09:11:42;;;;;;;3.40;0.82;;;;;;;18.47;41.52;100090.09;4975212;28;20027;-68
2022/04/06 09:14:09;;;;;;;1.58;0.70;;;;;;;18.44;42.03;100082.34;4975230;28;20031;-67
2022/04/06 09:16:34;;;;;;;3.55;0.80;;;;;;;18.39;41.54;100096.50;4973961;28;20031;-66
2022/04/06 09:19:11;;;;;;;1.95;0.60;;;;;;;18.35;42.33;100099.78;4973810;28;20030;-67
2022/04/06 09:21:46;;;;;;;2.50;0.85;;;;;;;18.28;42.08;100104.34;4974757;28;20480;-67
2022/04/06 09:24:24;;;;;;;3.15;0.40;;;;;;;18.21;42.06;100093.44;4976639;28;20054;-67
2022/04/06 09:27:01;;;;;;;6.13;0.90;;;;;;;18.20;42.02;100102.59;4968875;28;20094;-68
2022/04/06 09:29:26;;;;;;;6.78;1.00;;;;;;;18.21;42.54;100098.84;4973750;28;20033;-68
2022/04/06 09:31:52;;;;;;;1.00;0.90;;;;;;;18.21;42.44;100096.16;4975433;28;20027;-69
2022/04/06 09:34:22;;;;;;;2.42;0.73;;;;;;;18.20;42.42;100091.75;4974053;28;20031;-69
2022/04/06 09:36:47;;;;;;;1.77;0.90;;;;;;;18.19;42.25;100091.97;4975495;28;20034;-68
2022/04/06 09:39:13;;;;;;;2.00;0.50;;;;;;;18.18;41.68;100098.41;4974789;28;20022;-68
2022/04/06 09:41:59;;;;;;;4.97;1.25;;;;;;;18.19;42.60;100100.09;4974988;28;20099;-68
2022/04/06 09:50:12;;;;;;;2.95;0.63;;;;;;;18.20;41.66;100104.50;4978968;28;20046;-69
2022/04/06 09:52:37;;;;;;;2.45;0.70;;;;;;;18.17;41.53;100081.31;4978620;28;20103;-68
2022/04/06 09:55:06;;;;;;;2.95;1.40;;;;;;;18.22;41.94;100081.56;4978684;28;20476;-68
2022/04/06 09:57:59;;;;;;;1.45;0.90;;;;;;;18.28;42.31;100071.81;4978035;28;20029;-69
2022/04/06 10:00:29;;;;;;;2.88;0.82;;;;;;;18.38;41.67;100069.56;4968272;28;20043;-68
2022/04/06 10:03:10;;;;;;;4.95;0.70;;;;;;;18.46;42.31;100072.97;4959239;28;20120;-68
2022/04/06 10:05:40;;;;;;;2.33;0.60;;;;;;;18.59;41.95;100069.56;4959320;28;20043;-68
2022/04/06 10:08:07;;;;;;;6.75;0.85;;;;;;;18.67;41.85;100072.09;4959012;28;20023;-68
2022/04/06 10:10:34;;;;;;;4.82;0.52;;;;;;;18.72;41.75;100066.91;4957865;29;20027;-68
2022/04/06 10:12:59;;;;;;;0.80;0.47;;;;;;;18.79;41.93;100067.78;4959115;28;20031;-69
2022/04/06 10:15:25;;;;;;;1.92;1.00;;;;;;;18.84;41.42;100057.19;4990184;28;20389;-68
2022/04/06 10:17:51;;;;;;;2.20;0.50;;;;;;;18.86;41.71;100049.66;4957882;29;20030;-68
2022/04/06 10:20:31;;;;;;;2.78;0.80;;;;;;;18.97;41.33;100056.38;4959225;28;20384;-68
2022/04/06 10:23:18;;;;;;;4.53;0.70;;;;;;;19.04;41.54;100052.66;4942113;29;20031;-67
2022/04/06 10:26:01;;;;;;;0.93;0.65;;;;;;;19.06;41.56;100049.75;4958548;28;20038;-68
2022/04/06 10:28:31;;;;;;;1.10;0.50;;;;;;;19.16;41.19;100042.88;4957763;29;20034;-69
2022/04/06 10:31:11;;;;;;;1.27;0.95;;;;;;;19.27;41.37;100046.03;4957712;29;20041;-68
2022/04/06 10:33:37;;;;;;;0.60;0.55;;;;;;;19.31;41.08;100041.88;4957391;28;20081;-68
2022/04/06 10:36:19;;;;;;;3.60;0.65;;;;;;;19.34;41.17;100055.06;4957590;29;20019;-69
2022/04/06 10:39:17;;;;;;;6.22;1.02;;;;;;;19.34;41.33;100034.19;4957465;29;20448;-68
2022/04/06 10:42:15;;;;;;;1.10;0.60;;;;;;;19.35;41.19;100034.97;4957348;28;20031;-68
2022/04/06 10:44:41;;;;;;;1.88;0.95;;;;;;;19.36;41.43;100029.38;4959341;28;20478;-68
2022/04/06 10:47:08;;;;;;;2.92;0.68;;;;;;;19.38;40.94;100026.44;4957466;28;20023;-68
2022/04/06 10:49:33;;;;;;;3.70;0.82;;;;;;;19.38;40.81;100029.16;4958216;28;20046;-68
2022/04/06 10:52:17;;;;;;;4.68;0.80;;;;;;;19.40;40.81;100033.34;4957369;29;20031;-69
2022/04/06 10:54:42;;;;;;;1.75;0.80;;;;;;;19.42;41.28;100025.03;4958317;28;20020;-68
2022/04/06 10:57:08;;;;;;;5.60;0.82;;;;;;;19.43;41.23;100022.09;4958161;28;20030;-69
2022/04/06 10:59:34;;;;;;;2.40;0.77;;;;;;;19.46;41.08;100029.81;4957814;28;20420;-68
2022/04/06 11:02:11;;;;;;;2.03;0.90;;;;;;;19.45;40.77;100024.63;4957091;29;20035;-69
2022/04/06 11:04:40;;;;;;;1.25;0.80;;;;;;;19.41;41.03;100026.06;4958226;28;20363;-68
2022/04/06 11:07:05;;;;;;;2.17;0.80;;;;;;;19.40;40.68;100024.41;4958149;28;20027;-67
2022/04/06 11:12:26;;;;;;;1.27;0.80;;;;;;;19.34;41.05;100025.19;4957901;29;20405;-68
2022/04/06 11:14:57;;;;;;;2.53;0.75;;;;;;;19.30;40.66;100019.31;4956770;29;20374;-69
2022/04/06 11:17:34;;;;;;;4.68;0.75;;;;;;;19.25;40.79;100010.09;4957956;28;20114;-68
2022/04/06 11:20:03;;;;;;;5.55;0.52;;;;;;;19.17;40.68;100020.13;4957814;28;20030;-69
2022/04/06 11:22:28;;;;;;;2.00;0.70;;;;;;;19.16;40.46;100006.75;4957716;28;20090;-69
2022/04/06 11:24:54;;;;;;;1.25;0.90;;;;;;;19.13;40.79;100008.00;4956535;28;20031;-68
2022/04/06 11:27:26;;;;;;;1.35;0.90;;;;;;;19.08;41.26;100013.22;4957928;28;20106;-69
2022/04/06 11:30:07;;;;;;;2.05;0.82;;;;;;;19.07;40.80;99997.94;4957952;28;20023;-68
2022/04/06 11:32:33;;;;;;;1.25;1.10;;;;;;;19.10;41.17;100004.84;4964870;28;20038;-68
2022/04/06 11:35:00;;;;;;;2.20;1.00;;;;;;;19.09;41.10;100004.03;4975711;28;20364;-68